Time;durP1;ratioP1;P1;durP2;ratioP2;P2;SDS_P1;SDS_P2;PMS_P1;PMS_P2;Temp;Humidity;BMP_temperature;BMP_pressure;BME280_temperature;BME280_humidity;BME280_pressure;Samples;Min_cycle;Max_cycle;Signal;HPM_P1;HPM_P2
2022/06/12 00:01:23;;;;;;;;;26.00;26.00;;;;;19.93;88.14;99307.75;5109274;28;8839;-74
2022/06/12 00:03:52;;;;;;;;;30.75;28.25;;;;;19.88;87.69;99315.00;5142644;27;8863;-74
2022/06/12 00:06:23;;;;;;;;;26.25;25.75;;;;;19.87;87.65;99319.44;5098855;28;8896;-74
2022/06/12 00:08:53;;;;;;;;;28.75;26.75;;;;;19.89;87.95;99300.88;5016780;28;8864;-73
2022/06/12 00:11:26;;;;;;;;;28.25;27.00;;;;;19.91;87.92;99314.91;5022105;28;8940;-73
2022/06/12 00:13:57;;;;;;;;;28.00;26.75;;;;;19.91;87.20;99305.16;5069227;28;8832;-74
2022/06/12 00:16:27;;;;;;;;;28.75;28.75;;;;;19.87;86.65;99306.22;5067356;28;8890;-74
2022/06/12 00:18:56;;;;;;;;;27.40;24.80;;;;;19.81;86.58;99309.09;5095444;28;8843;-75
2022/06/12 00:21:31;;;;;;;;;28.25;27.00;;;;;19.83;87.03;99309.94;5090624;28;8862;-76
2022/06/12 00:24:02;;;;;;;;;26.40;25.00;;;;;19.86;87.03;99309.78;5106011;28;9113;-75
2022/06/12 00:26:34;;;;;;;;;25.40;24.80;;;;;19.90;86.30;99307.88;5065684;28;8963;-74
2022/06/12 00:29:06;;;;;;;;;27.80;24.40;;;;;19.93;86.21;99303.31;5065949;28;8891;-73
2022/06/12 00:31:38;;;;;;;;;25.20;25.20;;;;;20.04;85.53;99310.78;5067241;28;8993;-73
2022/06/12 00:34:07;;;;;;;;;26.80;25.40;;;;;20.10;85.01;99304.38;5053655;28;8820;-74
2022/06/12 00:36:37;;;;;;;;;4.00;4.00;;;;;20.04;84.77;99311.66;5115064;27;8859;-74
2022/06/12 00:39:08;;;;;;;;;25.80;25.80;;;;;19.95;84.25;99312.03;5154242;27;9994;-75
2022/06/12 00:41:39;;;;;;;;;25.60;23.60;;;;;20.03;84.57;99309.06;5111823;28;8843;-76
2022/06/12 00:44:08;;;;;;;;;27.00;25.20;;;;;20.02;84.28;99310.00;5094732;28;8851;-74
2022/06/12 00:46:46;;;;;;;;;26.00;25.60;;;;;19.90;84.21;99307.88;5113079;28;8836;-76
2022/06/12 00:49:22;;;;;;;;;26.60;26.20;;;;;20.01;83.66;99302.97;5111649;28;8882;-74
2022/06/12 00:51:56;;;;;;;;;22.40;21.60;;;;;20.10;85.12;99301.72;5152644;27;8873;-75
2022/06/12 00:54:25;;;;;;;;;26.40;25.20;;;;;20.05;82.78;99297.47;5153680;27;8843;-76
2022/06/12 00:56:57;;;;;;;;;26.00;26.00;;;;;20.13;82.83;99298.91;5118785;27;8966;-74
2022/06/12 00:59:35;;;;;;;;;25.80;24.20;;;;;20.03;82.64;99290.53;5112637;28;9441;-78
2022/06/12 01:02:07;;;;;;;;;24.80;24.80;;;;;19.87;82.96;99298.28;5087671;27;8858;-74
2022/06/12 01:07:29;;;;;;;;;20.00;20.00;;;;;19.67;83.18;99305.22;5089209;28;8834;-74
2022/06/12 01:10:02;;;;;;;;;25.00;23.40;;;;;19.44;84.34;99308.81;5089357;28;9107;-74
2022/06/12 01:12:35;;;;;;;;;22.80;22.20;;;;;19.24;85.14;99311.41;5087614;28;8854;-77
2022/06/12 01:15:10;;;;;;;;;25.40;25.40;;;;;19.34;85.63;99309.25;5089218;28;8846;-76
2022/06/12 01:17:40;;;;;;;;;24.40;24.40;;;;;19.14;86.28;99313.56;5089237;28;8842;-76
2022/06/12 01:20:13;;;;;;;;;22.75;22.00;;;;;19.03;86.66;99321.91;5089337;28;8849;-79
2022/06/12 01:23:11;;;;;;;;;14.00;13.40;;;;;19.00;86.79;99318.53;5072538;28;8822;-75
2022/06/12 01:26:13;;;;;;;;;26.20;25.20;;;;;19.02;85.63;99320.19;5070844;28;8932;-77
2022/06/12 01:28:47;;;;;;;;;22.20;22.20;;;;;19.05;86.91;99316.56;5066101;28;8857;-78
2022/06/12 01:31:25;;;;;;;;;24.40;23.40;;;;;18.98;86.47;99312.44;5073331;28;8862;-74
2022/06/12 01:34:04;;;;;;;;;27.00;27.00;;;;;19.09;85.82;99311.09;5089314;28;8934;-76
2022/06/12 01:36:39;;;;;;;;;23.80;23.80;;;;;18.94;86.44;99309.06;5114562;27;8885;-74
2022/06/12 01:39:16;;;;;;;;;22.80;21.60;;;;;19.03;85.52;99313.97;5095555;27;8934;-74
2022/06/12 01:41:53;;;;;;;;;28.20;26.20;;;;;19.10;86.24;99311.97;5112620;27;8845;-74
2022/06/12 01:44:41;;;;;;;;;22.20;22.20;;;;;19.13;85.17;99313.59;5042540;28;8849;-74
2022/06/12 01:47:20;;;;;;;;;25.40;24.40;;;;;19.03;84.91;99311.31;5090224;28;8904;-74
2022/06/12 01:49:57;;;;;;;;;24.40;22.00;;;;;18.78;86.60;99313.19;5096406;27;8861;-74
2022/06/12 01:52:32;;;;;;;;;25.60;23.20;;;;;18.58;87.26;99308.63;5130486;27;8872;-77
2022/06/12 01:55:08;;;;;;;;;27.40;25.80;;;;;18.46;87.47;99309.94;5128957;27;8939;-75
2022/06/12 01:57:43;;;;;;;;;27.00;25.40;;;;;18.41;88.56;99294.28;5109086;28;8843;-75
2022/06/12 02:00:18;;;;;;;;;27.50;26.75;;;;;18.37;87.83;99305.00;5077115;27;8995;-76
2022/06/12 02:02:53;;;;;;;;;25.40;23.20;;;;;18.36;88.60;99300.66;5112245;27;8861;-75
2022/06/12 02:05:27;;;;;;;;;29.00;28.00;;;;;18.30;88.64;99302.59;5100612;28;8945;-76
2022/06/12 02:08:02;;;;;;;;;25.00;23.20;;;;;18.32;87.96;99297.25;5091571;28;9004;-77
2022/06/12 02:10:36;;;;;;;;;23.80;22.60;;;;;18.41;87.27;99310.13;5091479;28;8832;-78
2022/06/12 02:13:14;;;;;;;;;24.60;24.00;;;;;18.47;86.65;99314.31;5108799;28;8855;-75
2022/06/12 02:15:55;;;;;;;;;23.75;23.75;;;;;18.48;86.47;99303.69;5086995;28;8866;-76
2022/06/12 02:18:33;;;;;;;;;24.50;24.50;;;;;18.55;85.78;99306.13;5068517;28;8985;-78
2022/06/12 02:21:07;;;;;;;;;26.75;25.75;;;;;18.63;85.67;99304.91;5084411;28;8866;-75
2022/06/12 02:23:41;;;;;;;;;21.20;21.00;;;;;18.66;83.76;99302.16;5045931;28;8962;-75
2022/06/12 02:26:15;;;;;;;;;27.00;23.75;;;;;18.66;84.21;99306.59;5046170;28;9620;-74
2022/06/12 02:28:49;;;;;;;;;22.75;22.25;;;;;18.61;84.45;99306.72;5045879;28;8916;-75
2022/06/12 02:31:29;;;;;;;;;24.00;24.00;;;;;18.55;84.20;99306.13;5045757;28;8840;-77
2022/06/12 02:34:03;;;;;;;;;26.25;24.50;;;;;18.50;84.54;99314.19;5044475;28;8851;-77
2022/06/12 02:36:37;;;;;;;;;22.00;21.75;;;;;18.45;84.84;99310.84;5046353;28;8851;-76
2022/06/12 02:39:12;;;;;;;;;26.00;25.00;;;;;18.49;84.36;99320.41;5044076;28;8864;-75
2022/06/12 02:41:44;;;;;;;;;24.50;24.50;;;;;18.50;84.28;99311.56;5043088;28;8880;-72
2022/06/12 02:44:16;;;;;;;;;23.20;23.20;;;;;18.50;84.51;99317.69;5084513;28;8954;-74
2022/06/12 02:46:52;;;;;;;;;22.25;22.25;;;;;18.59;83.16;99332.34;5085459;28;8837;-75
2022/06/12 02:49:21;;;;;;;;;21.00;20.00;;;;;18.49;84.22;99325.69;5085327;28;8861;-74
2022/06/12 02:51:59;;;;;;;;;22.25;21.75;;;;;18.46;84.17;99328.44;5086110;28;8848;-77
2022/06/12 02:54:35;;;;;;;;;24.50;23.50;;;;;18.45;83.97;99322.28;5096994;27;8975;-76
2022/06/12 02:57:11;;;;;;;;;27.25;25.50;;;;;18.40;84.74;99321.59;5107312;27;8841;-76
2022/06/12 02:59:56;;;;;;;;;25.00;22.50;;;;;18.31;84.83;99317.50;5110016;27;8837;-76
2022/06/12 03:02:34;;;;;;;;;25.75;25.50;;;;;18.22;85.01;99323.13;5110858;27;8821;-74
2022/06/12 03:05:12;;;;;;;;;23.50;21.25;;;;;18.24;84.35;99325.69;5108888;27;8909;-78
2022/06/12 03:07:41;;;;;;;;;25.75;25.75;;;;;18.20;85.13;99322.28;5104852;28;8849;-74
2022/06/12 03:10:15;;;;;;;;;25.60;25.60;;;;;18.08;84.98;99330.66;5102199;28;9695;-75
2022/06/12 03:12:45;;;;;;;;;27.00;27.00;;;;;18.06;86.09;99333.34;5087652;28;8884;-77
2022/06/12 03:15:32;;;;;;;;;23.40;22.60;;;;;17.93;84.55;99326.78;5105158;28;9626;-75
2022/06/12 03:18:04;;;;;;;;;27.75;27.75;;;;;18.03;86.20;99328.16;5104102;28;8933;-75
2022/06/12 03:20:41;;;;;;;;;26.40;26.40;;;;;17.97;86.10;99330.16;5067129;28;8847;-77
2022/06/12 03:23:22;;;;;;;;;27.50;27.25;;;;;17.92;87.20;99319.78;5050093;28;8909;-76
2022/06/12 03:25:53;;;;;;;;;27.40;26.80;;;;;17.84;87.86;99334.97;5082945;28;8947;-75
2022/06/12 03:28:32;;;;;;;;;22.25;22.00;;;;;17.77;89.24;99342.22;5083736;28;8905;-76
2022/06/12 03:31:07;;;;;;;;;28.50;27.25;;;;;17.70;89.53;99343.34;5083372;28;8851;-75
2022/06/12 03:33:47;;;;;;;;;26.50;25.50;;;;;17.63;90.63;99340.03;5084155;28;8855;-77
2022/06/12 03:36:20;;;;;;;;;31.25;30.25;;;;;17.71;90.54;99339.78;5050942;28;8858;-76
2022/06/12 03:38:55;;;;;;;;;28.50;28.50;;;;;17.68;91.71;99331.97;5107570;27;8853;-76
2022/06/12 03:41:30;;;;;;;;;34.00;31.00;;;;;17.63;91.87;99332.13;5126124;27;8850;-78
2022/06/12 03:44:12;;;;;;;;;29.50;27.75;;;;;17.62;92.20;99332.19;5129717;27;8842;-74
2022/06/12 03:46:45;;;;;;;;;32.75;31.00;;;;;17.53;93.15;99326.28;5128737;27;8902;-76
2022/06/12 03:49:25;;;;;;;;;32.75;29.25;;;;;17.45;93.75;99328.31;5110946;27;8830;-76
2022/06/12 03:51:59;;;;;;;;;32.25;29.25;;;;;17.51;93.04;99332.53;5129076;27;8856;-74
2022/06/12 03:54:34;;;;;;;;;31.25;29.25;;;;;17.48;93.75;99333.47;5110882;27;8834;-78
2022/06/12 04:00:00;;;;;;;;;30.50;29.25;;;;;17.36;94.96;99339.16;5107087;27;8853;-74
2022/06/12 04:02:40;;;;;;;;;29.75;28.75;;;;;17.30;94.58;99345.47;5128283;27;8858;-75
2022/06/12 04:05:19;;;;;;;;;31.20;30.20;;;;;17.28;95.79;99338.53;5111084;27;8842;-74
2022/06/12 04:07:52;;;;;;;;;33.25;29.25;;;;;17.30;94.21;99332.31;5089418;27;8821;-75
2022/06/12 04:10:25;;;;;;;;;32.75;30.25;;;;;17.29;93.92;99341.09;5128731;27;8905;-75
2022/06/12 04:12:55;;;;;;;;;28.25;27.25;;;;;17.33;93.91;99337.50;5091817;27;8862;-76
2022/06/12 04:15:29;;;;;;;;;31.75;29.00;;;;;17.34;94.02;99340.97;5093576;27;8918;-76
2022/06/12 04:17:58;;;;;;;;;27.20;25.40;;;;;17.34;93.29;99346.25;5128620;27;8899;-75
2022/06/12 04:20:41;;;;;;;;;26.80;26.80;;;;;17.41;94.49;99358.34;5014148;28;8869;-74
2022/06/12 04:23:17;;;;;;;;;29.60;29.60;;;;;17.50;93.42;99362.44;5062888;28;9040;-74
2022/06/12 04:25:51;;;;;;;;;31.20;30.20;;;;;17.49;93.10;99374.75;5048017;28;8845;-74
2022/06/12 04:28:27;;;;;;;;;27.75;27.50;;;;;17.47;93.42;99363.41;5065143;28;8849;-77
2022/06/12 04:30:56;;;;;;;;;31.25;31.00;;;;;17.54;93.19;99372.84;5032375;28;8861;-78
2022/06/12 04:33:41;;;;;;;;;32.25;31.25;;;;;17.69;92.18;99362.69;5064577;28;8829;-74
2022/06/12 04:36:12;;;;;;;;;38.75;35.00;;;;;17.80;90.93;99365.84;5070374;28;8838;-76
2022/06/12 04:38:41;;;;;;;;;30.40;30.40;;;;;17.78;91.37;99366.81;5067495;28;8890;-75
2022/06/12 04:41:16;;;;;;;;;22.75;22.25;;;;;17.89;91.17;99365.56;5069708;28;8876;-76
2022/06/12 04:43:45;;;;;;;;;35.00;30.75;;;;;17.92;90.08;99359.34;5058030;28;8837;-76
2022/06/12 04:46:13;;;;;;;;;30.80;30.80;;;;;17.89;89.95;99367.38;5085702;28;9042;-75
2022/06/12 04:48:45;;;;;;;;;30.25;28.75;;;;;17.80;90.34;99367.63;5085755;28;8838;-78
2022/06/12 04:51:15;;;;;;;;;30.00;29.25;;;;;17.86;90.60;99370.09;5047927;28;8867;-75
2022/06/12 04:53:45;;;;;;;;;28.20;27.40;;;;;17.87;90.45;99374.47;5090441;28;8840;-74
2022/06/12 04:56:18;;;;;;;;;29.00;29.00;;;;;18.01;90.29;99377.50;5065026;28;8860;-74
2022/06/12 04:58:47;;;;;;;;;29.80;27.80;;;;;18.01;89.93;99374.00;5066035;28;8908;-75
2022/06/12 05:01:15;;;;;;;;;31.75;28.50;;;;;17.93;89.36;99380.38;5034396;28;8901;-74
2022/06/12 05:03:44;;;;;;;;;37.25;33.00;;;;;17.89;91.02;99372.63;5084013;28;8831;-74
2022/06/12 05:06:16;;;;;;;;;31.00;30.25;;;;;17.82;91.14;99371.94;5067778;28;8891;-74
2022/06/12 05:08:46;;;;;;;;;34.75;32.50;;;;;17.85;91.85;99376.28;5082027;28;8860;-74
2022/06/12 05:11:15;;;;;;;;;26.60;26.60;;;;;17.84;90.45;99371.88;5038341;28;8883;-77
2022/06/12 05:13:44;;;;;;;;;34.50;30.50;;;;;17.97;91.63;99381.16;5063743;28;8848;-74
2022/06/12 05:16:25;;;;;;;;;31.00;29.50;;;;;18.01;88.60;99381.91;5063271;28;8912;-74
2022/06/12 05:18:54;;;;;;;;;29.40;27.60;;;;;18.19;86.53;99376.00;5034285;28;8928;-74
2022/06/12 05:21:24;;;;;;;;;29.80;27.00;;;;;18.16;83.81;99368.19;5050854;28;8851;-74
2022/06/12 05:23:53;;;;;;;;;27.75;26.75;;;;;18.33;83.21;99372.03;5051070;28;8858;-74
2022/06/12 05:26:22;;;;;;;;;23.60;23.60;;;;;18.46;82.60;99376.81;5036997;28;8959;-74
2022/06/12 05:28:52;;;;;;;;;28.40;27.00;;;;;18.50;81.37;99375.78;5084987;28;9000;-75
2022/06/12 05:31:21;;;;;;;;;31.50;28.00;;;;;18.60;81.77;99386.00;5087365;28;8846;-76
2022/06/12 05:33:49;;;;;;;;;30.80;30.00;;;;;18.82;79.77;99381.72;5084831;28;8838;-75
2022/06/12 05:36:25;;;;;;;;;30.25;30.25;;;;;18.77;79.99;99380.13;5056291;28;8892;-75
2022/06/12 05:38:54;;;;;;;;;29.40;26.80;;;;;19.01;80.75;99396.88;5086993;28;8854;-73
2022/06/12 05:41:22;;;;;;;;;28.20;26.80;;;;;19.02;78.43;99388.91;5036405;28;8861;-73
2022/06/12 05:43:51;;;;;;;;;29.80;27.00;;;;;18.91;78.28;99393.72;5087658;28;8869;-75
2022/06/12 05:46:20;;;;;;;;;23.20;23.20;;;;;18.86;79.38;99388.59;5054205;28;8840;-74
2022/06/12 05:48:48;;;;;;;;;25.40;25.40;;;;;18.88;79.17;99397.38;5036345;27;8853;-73
2022/06/12 05:51:19;;;;;;;;;31.20;26.40;;;;;18.91;79.00;99398.16;5116880;27;8859;-75
2022/06/12 05:53:50;;;;;;;;;27.60;26.00;;;;;18.86;78.92;99391.25;5113385;27;8853;-75
2022/06/12 05:56:22;;;;;;;;;25.20;25.20;;;;;19.05;78.79;99399.38;5109935;27;8952;-74
2022/06/12 05:58:51;;;;;;;;;27.20;26.60;;;;;19.05;77.58;99404.66;5109418;27;8879;-76
2022/06/12 06:01:22;;;;;;;;;26.60;26.60;;;;;19.07;78.01;99402.81;5108917;27;8871;-75
2022/06/12 06:03:51;;;;;;;;;24.60;24.60;;;;;19.31;77.24;99394.00;5110227;27;8962;-75
2022/06/12 06:06:24;;;;;;;;;29.60;28.20;;;;;19.60;77.24;99396.38;5109092;27;8890;-77
2022/06/12 06:08:58;;;;;;;;;24.80;24.80;;;;;19.55;75.27;99402.75;5110996;27;8847;-75
2022/06/12 06:11:27;;;;;;;;;21.20;20.80;;;;;19.50;74.78;99410.00;5026262;28;8871;-76
2022/06/12 06:13:55;;;;;;;;;25.60;24.60;;;;;19.59;75.90;99405.22;5079429;27;8833;-76
2022/06/12 06:16:24;;;;;;;;;21.40;20.60;;;;;19.76;74.09;99415.16;5130525;27;8930;-76
2022/06/12 06:18:54;;;;;;;;;27.20;26.60;;;;;19.78;73.96;99404.50;5116108;27;9061;-74
2022/06/12 06:21:23;;;;;;;;;25.60;24.80;;;;;19.66;74.48;99411.13;5133578;27;8866;-75
2022/06/12 06:23:52;;;;;;;;;28.60;26.60;;;;;19.55;74.37;99408.06;5116999;27;8849;-69
2022/06/12 06:26:23;;;;;;;;;26.20;26.20;;;;;19.46;76.05;99403.97;5131076;27;8860;-69
2022/06/12 06:28:52;;;;;;;;;8.40;8.00;;;;;19.71;75.11;99405.63;5111295;27;9650;-70
2022/06/12 06:31:21;;;;;;;;;24.00;23.60;;;;;19.81;74.25;99412.31;5126325;27;8857;-68
2022/06/12 06:33:50;;;;;;;;;25.60;24.40;;;;;19.87;73.97;99409.44;5093177;27;8897;-76
2022/06/12 06:36:19;;;;;;;;;28.00;26.00;;;;;19.84;73.78;99398.97;5094015;27;8859;-77
2022/06/12 06:38:51;;;;;;;;;25.20;25.20;;;;;19.78;74.13;99401.88;5125641;27;9607;-76
2022/06/12 06:41:19;;;;;;;;;26.80;26.80;;;;;19.79;73.61;99414.16;5090637;27;8922;-75
2022/06/12 06:46:36;;;;;;;;;27.60;27.60;;;;;20.22;73.58;99405.28;5110428;28;8864;-70
2022/06/12 06:49:05;;;;;;;;;26.40;26.20;;;;;20.34;72.75;99397.75;5119716;27;9571;-70
2022/06/12 06:51:34;;;;;;;;;37.50;33.00;;;;;20.69;72.27;99395.41;5130054;27;8898;-68
2022/06/12 06:54:04;;;;;;;;;30.20;27.60;;;;;20.53;71.98;99397.81;5111801;27;8829;-66
2022/06/12 06:56:33;;;;;;;;;26.40;26.40;;;;;20.29;72.19;99405.91;5109922;27;8841;-74
2022/06/12 06:59:03;;;;;;;;;24.00;23.00;;;;;20.19;73.74;99381.59;5091792;28;8844;-72
2022/06/12 07:01:32;;;;;;;;;24.40;24.20;;;;;20.34;73.18;99392.44;5115811;27;8847;-69
2022/06/12 07:04:00;;;;;;;;;28.40;27.60;;;;;20.08;72.41;99399.72;5130839;27;9631;-76
2022/06/12 07:06:29;;;;;;;;;27.40;26.80;;;;;20.22;73.46;99407.09;5116275;27;8954;-70
2022/06/12 07:08:58;;;;;;;;;26.40;25.60;;;;;20.39;72.13;99401.06;5061048;27;8836;-74
2022/06/12 07:11:27;;;;;;;;;25.00;25.00;;;;;20.52;71.44;99404.91;5090155;27;8867;-74
2022/06/12 07:13:57;;;;;;;;;24.00;23.80;;;;;20.79;69.79;99404.63;5117935;27;8957;-75
2022/06/12 07:16:30;;;;;;;;;27.00;26.60;;;;;20.59;69.83;99409.00;5117673;27;8882;-77
2022/06/12 07:18:59;;;;;;;;;25.40;24.80;;;;;20.80;70.60;99409.03;5109469;28;8840;-74
2022/06/12 07:21:28;;;;;;;;;26.80;25.40;;;;;20.83;70.89;99404.44;5111953;27;8888;-75
2022/06/12 07:23:56;;;;;;;;;19.00;19.00;;;;;21.14;70.42;99407.50;5098506;27;8967;-75
2022/06/12 07:26:28;;;;;;;;;23.40;23.40;;;;;21.31;68.68;99418.16;5150004;27;8969;-74
2022/06/12 07:28:58;;;;;;;;;26.20;25.60;;;;;21.32;69.04;99409.28;5104212;28;8843;-74
2022/06/12 07:31:28;;;;;;;;;28.00;25.80;;;;;21.02;68.35;99411.56;5113853;27;8853;-76
2022/06/12 07:33:57;;;;;;;;;28.80;27.40;;;;;21.11;69.61;99413.78;5118969;27;8959;-75
2022/06/12 07:36:27;;;;;;;;;26.20;25.00;;;;;21.46;69.36;99411.31;5128659;27;8846;-73
2022/06/12 07:38:55;;;;;;;;;25.60;24.60;;;;;21.75;66.81;99411.69;5126495;27;8995;-74
2022/06/12 07:41:47;;;;;;;;;26.60;25.80;;;;;21.85;65.81;99417.41;5128147;27;8857;-74
2022/06/12 07:44:19;;;;;;;;;23.80;22.60;;;;;21.86;65.52;99417.34;5110608;27;8888;-75
2022/06/12 07:46:51;;;;;;;;;22.60;22.60;;;;;21.83;65.06;99422.78;5120309;27;8817;-74
2022/06/12 07:49:21;;;;;;;;;21.80;21.00;;;;;21.71;65.68;99426.91;5128400;27;8849;-74
2022/06/12 07:51:51;;;;;;;;;23.20;22.80;;;;;21.67;67.53;99420.03;5128571;27;8853;-75
2022/06/12 07:54:20;;;;;;;;;26.80;24.60;;;;;22.05;66.44;99427.91;5120316;27;8940;-75
2022/06/12 07:56:49;;;;;;;;;22.60;21.60;;;;;22.03;65.60;99435.09;5129690;27;8998;-74
2022/06/12 07:59:18;;;;;;;;;22.80;22.80;;;;;22.15;64.95;99431.81;5149906;27;8832;-74
2022/06/12 08:01:47;;;;;;;;;21.20;21.00;;;;;21.77;65.21;99447.00;5142519;27;8857;-75
2022/06/12 08:04:17;;;;;;;;;24.80;24.40;;;;;21.73;65.91;99434.81;5055318;28;9513;-76
2022/06/12 08:06:47;;;;;;;;;23.40;22.60;;;;;21.58;65.77;99431.94;5142674;27;9127;-76
2022/06/12 08:09:16;;;;;;;;;22.60;21.80;;;;;21.50;66.33;99423.50;5128394;27;9601;-75
2022/06/12 08:11:47;;;;;;;;;22.20;22.20;;;;;21.67;66.27;99425.34;5052801;27;8852;-75
2022/06/12 08:14:19;;;;;;;;;21.00;20.60;;;;;21.70;66.36;99430.53;5108981;27;8860;-75
2022/06/12 08:16:48;;;;;;;;;21.40;21.40;;;;;21.53;65.73;99427.78;5094123;27;8855;-74
2022/06/12 08:22:07;;;;;;;;;22.40;21.60;;;;;21.68;66.11;99427.09;5112558;27;8886;-74
2022/06/12 08:24:36;;;;;;;;;18.80;18.80;;;;;21.85;64.98;99428.03;5107464;27;8885;-75
2022/06/12 08:27:06;;;;;;;;;19.80;19.80;;;;;21.88;65.29;99420.78;5107330;27;8834;-74
2022/06/12 08:29:35;;;;;;;;;20.80;20.60;;;;;21.84;64.53;99434.28;5091711;27;9610;-76
2022/06/12 08:32:08;;;;;;;;;24.20;23.40;;;;;21.87;64.40;99427.03;5109760;27;8873;-75
2022/06/12 08:34:43;;;;;;;;;18.60;18.60;;;;;21.73;64.54;99421.53;5085130;27;8871;-75
2022/06/12 08:37:17;;;;;;;;;18.80;17.60;;;;;21.99;64.75;99422.91;5095885;27;8839;-75
2022/06/12 08:39:46;;;;;;;;;19.00;19.00;;;;;22.07;64.00;99428.69;5097441;27;8842;-75
2022/06/12 08:42:19;;;;;;;;;20.00;20.00;;;;;22.04;62.99;99443.91;5098901;27;9695;-75
2022/06/12 08:44:52;;;;;;;;;13.40;13.40;;;;;22.04;62.72;99438.59;5121538;27;8831;-76
2022/06/12 08:47:29;;;;;;;;;17.60;17.60;;;;;22.17;62.68;99429.97;5149902;27;9604;-78
2022/06/12 08:50:10;;;;;;;;;18.20;16.20;;;;;22.48;62.90;99430.25;5131546;27;8835;-72
2022/06/12 08:52:43;;;;;;;;;12.20;12.20;;;;;22.72;61.18;99436.06;5149720;27;8851;-75
2022/06/12 08:55:18;;;;;;;;;21.40;19.60;;;;;22.72;60.81;99428.09;5153120;27;8831;-75
2022/06/12 08:57:52;;;;;;;;;20.00;20.00;;;;;22.72;60.15;99431.63;5138854;27;8899;-75
2022/06/12 09:00:23;;;;;;;;;19.40;18.40;;;;;22.65;61.06;99445.31;5146620;27;8962;-72
2022/06/12 09:02:52;;;;;;;;;21.80;17.80;;;;;22.91;61.21;99436.84;5146559;27;8859;-74
2022/06/12 09:05:31;;;;;;;;;19.80;19.80;;;;;22.94;60.51;99426.00;5152949;27;8827;-73
2022/06/12 09:08:11;;;;;;;;;18.40;17.60;;;;;23.15;60.30;99432.00;5118228;27;8949;-72
2022/06/12 09:10:43;;;;;;;;;15.00;15.00;;;;;23.13;59.61;99436.53;5147776;27;8862;-75
2022/06/12 09:13:21;;;;;;;;;20.00;17.80;;;;;23.33;58.88;99438.13;5152533;27;8866;-75
2022/06/12 09:15:58;;;;;;;;;14.80;14.60;;;;;23.23;59.24;99444.03;5152566;27;8878;-74
2022/06/12 09:18:39;;;;;;;;;13.40;13.00;;;;;23.22;58.93;99452.97;5139815;27;8891;-66
2022/06/12 09:21:16;;;;;;;;;15.60;15.40;;;;;23.51;59.58;99432.72;5131501;27;8909;-66
2022/06/12 09:23:58;;;;;;;;;16.80;16.60;;;;;23.77;57.50;99433.94;5084230;27;8867;-67
2022/06/12 09:26:42;;;;;;;;;16.80;15.80;;;;;23.75;57.57;99434.00;5136239;27;8845;-66
2022/06/12 09:29:21;;;;;;;;;15.20;15.00;;;;;23.75;57.79;99431.34;5094992;27;8876;-67
2022/06/12 09:32:00;;;;;;;;;15.60;15.00;;;;;23.66;57.00;99431.00;5131665;27;8863;-67
2022/06/12 09:34:39;;;;;;;;;15.20;15.20;;;;;23.44;57.20;99455.31;5110369;27;8843;-66
2022/06/12 09:40:29;;;;;;;;;12.00;12.00;;;;;23.39;57.52;99446.72;5124810;27;8848;-66
2022/06/12 09:43:02;;;;;;;;;13.80;13.80;;;;;23.53;58.36;99433.50;5110429;28;9596;-68
2022/06/12 09:45:46;;;;;;;;;15.00;14.80;;;;;23.64;58.39;99439.09;5073953;27;8872;-70
2022/06/12 09:48:23;;;;;;;;;13.00;13.00;;;;;23.89;58.77;99438.59;5124806;27;9588;-70
2022/06/12 09:51:08;;;;;;;;;12.00;12.00;;;;;24.27;57.21;99430.19;5110863;28;8855;-67
2022/06/12 09:53:55;;;;;;;;;13.20;13.20;;;;;24.60;56.24;99430.94;5122439;27;8845;-67
2022/06/12 09:56:31;;;;;;;;;15.80;15.80;;;;;24.43;55.07;99438.13;5117599;27;8849;-68
2022/06/12 09:59:08;;;;;;;;;7.80;7.80;;;;;24.23;55.83;99417.97;5151444;27;8870;-68
2022/06/12 10:01:40;;;;;;;;;12.80;12.80;;;;;24.30;55.72;99431.78;5151525;27;8943;-68
2022/06/12 10:04:17;;;;;;;;;16.20;15.00;;;;;24.49;56.26;99431.56;5122467;27;8823;-66
2022/06/12 10:06:51;;;;;;;;;14.00;13.00;;;;;24.70;55.53;99419.63;5151887;27;8823;-70
2022/06/12 10:09:29;;;;;;;;;13.60;13.60;;;;;24.97;54.46;99426.00;5106269;27;8885;-69
2022/06/12 10:12:04;;;;;;;;;14.00;14.00;;;;;24.37;54.42;99408.31;5150969;27;8835;-67
2022/06/12 10:14:37;;;;;;;;;12.40;12.40;;;;;24.07;55.19;99428.69;5151544;27;9597;-70
2022/06/12 10:17:11;;;;;;;;;14.60;13.00;;;;;24.07;54.95;99414.50;5132756;27;8985;-72
2022/06/12 10:19:45;;;;;;;;;13.20;13.20;;;;;23.99;55.89;99419.41;5073957;28;8852;-71
2022/06/12 10:22:20;;;;;;;;;9.60;9.60;;;;;24.06;55.56;99412.78;5149909;27;8858;-71
2022/06/12 10:24:56;;;;;;;;;18.00;17.00;;;;;24.36;55.03;99399.44;5133480;27;8854;-75
2022/06/12 10:27:26;;;;;;;;;12.60;12.40;;;;;24.27;55.00;99408.88;5138142;27;8847;-73
2022/06/12 10:30:00;;;;;;;;;13.40;12.80;;;;;24.42;54.79;99404.41;5151364;27;8889;-72
2022/06/12 10:32:48;;;;;;;;;14.80;14.80;;;;;24.28;54.66;99405.22;5150561;27;8871;-72
2022/06/12 10:35:19;;;;;;;;;13.00;13.00;;;;;24.23;55.34;99403.78;5150863;27;8881;-70
2022/06/12 10:37:47;;;;;;;;;12.60;12.60;;;;;24.33;54.49;99391.66;5087823;28;8843;-72
2022/06/12 10:40:21;;;;;;;;;14.00;13.20;;;;;24.49;53.92;99395.09;5088013;27;8838;-73
2022/06/12 10:42:53;;;;;;;;;13.60;13.60;;;;;24.68;53.18;99399.34;5117943;27;8855;-71
2022/06/12 10:45:25;;;;;;;;;13.00;11.80;;;;;25.04;52.38;99382.84;5073973;27;8964;-72
2022/06/12 10:47:57;;;;;;;;;12.60;10.40;;;;;25.01;51.43;99388.41;5151101;27;8835;-72
2022/06/12 10:50:30;;;;;;;;;12.20;12.20;;;;;25.18;51.08;99387.34;5150407;27;8843;-71
2022/06/12 10:53:14;;;;;;;;;11.20;11.20;;;;;25.29;51.00;99363.50;5145361;27;8866;-71
2022/06/12 10:56:00;;;;;;;;;12.80;11.00;;;;;25.31;50.77;99373.22;5126764;27;8836;-70
2022/06/12 10:59:01;;;;;;;;;13.00;13.00;;;;;25.19;51.38;99361.50;5123772;27;8839;-71
2022/06/12 11:01:40;;;;;;;;;10.20;10.00;;;;;25.63;51.55;99373.78;5113185;27;8845;-70
2022/06/12 11:04:23;;;;;;;;;19.00;18.20;;;;;25.75;50.17;99364.13;5128459;27;8848;-69
2022/06/12 11:07:05;;;;;;;;;27.40;24.00;;;;;25.94;49.52;99369.13;5136163;27;8873;-65
2022/06/12 11:09:49;;;;;;;;;14.20;14.20;;;;;26.32;49.20;99365.69;5128095;27;8853;-65
2022/06/12 11:12:34;;;;;;;;;12.60;12.40;;;;;26.59;48.19;99347.72;5122830;27;8978;-66
2022/06/12 11:15:19;;;;;;;;;11.80;11.20;;;;;26.89;48.06;99353.72;5106130;28;8873;-65
2022/06/12 11:17:59;;;;;;;;;10.60;10.20;;;;;27.21;47.44;99354.06;5105932;27;8827;-69
2022/06/12 11:20:40;;;;;;;;;12.00;12.00;;;;;27.49;44.85;99352.94;5144460;27;8864;-72
2022/06/12 11:23:46;;;;;;;;;11.60;10.60;;;;;27.21;44.99;99349.56;5127570;27;9635;-72
2022/06/12 11:26:41;;;;;;;;;12.20;11.80;;;;;27.34;45.78;99343.34;5015920;28;8850;-74
2022/06/12 11:29:29;;;;;;;;;14.20;13.00;;;;;27.27;43.78;99348.28;5029363;28;8846;-74
2022/06/12 11:32:08;;;;;;;;;12.00;11.00;;;;;27.41;44.77;99337.44;5030937;28;8847;-70
2022/06/12 11:34:58;;;;;;;;;11.60;11.20;;;;;27.85;44.92;99339.59;5016132;28;8998;-73
2022/06/12 11:37:46;;;;;;;;;10.40;10.40;;;;;27.83;43.36;99330.78;5024778;28;8887;-75
2022/06/12 11:40:25;;;;;;;;;12.20;11.20;;;;;27.79;43.09;99328.34;5025637;28;8955;-73
2022/06/12 11:43:15;;;;;;;;;12.00;11.60;;;;;27.26;43.94;99340.34;5024488;28;8874;-73
2022/06/12 11:46:01;;;;;;;;;11.00;11.00;;;;;26.92;44.65;99337.41;5023440;28;8857;-72
2022/06/12 11:48:45;;;;;;;;;8.00;7.00;;;;;26.93;44.69;99331.09;5024290;28;8852;-73
2022/06/12 11:51:25;;;;;;;;;12.00;12.00;;;;;27.18;44.69;99325.69;5024369;28;8840;-74
2022/06/12 11:54:10;;;;;;;;;11.00;10.00;;;;;27.61;44.99;99319.84;5007744;28;8857;-75
2022/06/12 11:56:50;;;;;;;;;10.40;10.40;;;;;27.53;43.13;99321.41;5023162;28;8891;-73
2022/06/12 11:59:29;;;;;;;;;9.00;9.00;;;;;27.53;43.41;99314.22;5023183;28;8907;-74
2022/06/12 12:02:09;;;;;;;;;9.20;9.20;;;;;27.80;43.78;99321.16;5046228;27;8834;-76
2022/06/12 12:04:56;;;;;;;;;13.40;13.00;;;;;27.91;42.42;99312.34;5134478;27;8843;-73
2022/06/12 12:07:42;;;;;;;;;11.00;11.00;;;;;28.15;42.74;99309.59;5131523;27;8921;-70
2022/06/12 12:10:26;;;;;;;;;11.20;11.00;;;;;27.89;41.65;99317.81;5110750;28;8866;-71
2022/06/12 12:12:59;;;;;;;;;10.00;10.00;;;;;28.00;41.96;99315.16;5108405;28;8947;-71
2022/06/12 12:15:33;;;;;;;;;9.60;9.20;;;;;27.93;41.44;99297.00;5123367;27;8811;-72